sensor_id;sensor_type;location;lat;lon;timestamp;temperature;humidity
44477;DHT22;30180;44.788;10.366;2024-01-30T00:01:46;17.40;60.70
44477;DHT22;30180;44.788;10.366;2024-01-30T00:04:16;17.40;60.70
44477;DHT22;30180;44.788;10.366;2024-01-30T00:06:45;17.40;60.60
44477;DHT22;30180;44.788;10.366;2024-01-30T00:09:13;17.40;60.70
44477;DHT22;30180;44.788;10.366;2024-01-30T00:11:42;17.40;60.60
44477;DHT22;30180;44.788;10.366;2024-01-30T00:14:10;17.30;60.60
44477;DHT22;30180;44.788;10.366;2024-01-30T00:16:38;17.30;60.60
44477;DHT22;30180;44.788;10.366;2024-01-30T00:19:07;17.40;60.60
44477;DHT22;30180;44.788;10.366;2024-01-30T00:21:37;17.30;60.60
44477;DHT22;30180;44.788;10.366;2024-01-30T00:24:05;17.30;60.60
44477;DHT22;30180;44.788;10.366;2024-01-30T00:26:34;17.30;60.60
44477;DHT22;30180;44.788;10.366;2024-01-30T00:29:02;17.30;60.60
44477;DHT22;30180;44.788;10.366;2024-01-30T00:31:31;17.30;60.60
44477;DHT22;30180;44.788;10.366;2024-01-30T00:33:59;17.30;60.60
44477;DHT22;30180;44.788;10.366;2024-01-30T00:36:28;17.30;60.60
44477;DHT22;30180;44.788;10.366;2024-01-30T00:38:58;17.30;60.60
44477;DHT22;30180;44.788;10.366;2024-01-30T00:41:26;17.30;60.60
44477;DHT22;30180;44.788;10.366;2024-01-30T00:43:55;17.30;60.60
44477;DHT22;30180;44.788;10.366;2024-01-30T00:46:23;17.30;60.60
44477;DHT22;30180;44.788;10.366;2024-01-30T00:48:52;17.30;60.60
44477;DHT22;30180;44.788;10.366;2024-01-30T00:51:20;17.20;60.50
44477;DHT22;30180;44.788;10.366;2024-01-30T00:53:48;17.20;60.50
44477;DHT22;30180;44.788;10.366;2024-01-30T00:56:19;17.20;60.50
44477;DHT22;30180;44.788;10.366;2024-01-30T00:58:47;17.20;60.50
44477;DHT22;30180;44.788;10.366;2024-01-30T01:01:16;17.20;60.50
44477;DHT22;30180;44.788;10.366;2024-01-30T01:03:46;17.20;60.50
44477;DHT22;30180;44.788;10.366;2024-01-30T01:06:15;17.20;60.50
44477;DHT22;30180;44.788;10.366;2024-01-30T01:08:44;17.20;60.50
44477;DHT22;30180;44.788;10.366;2024-01-30T01:11:12;17.20;60.70
44477;DHT22;30180;44.788;10.366;2024-01-30T01:13:42;17.20;60.50
44477;DHT22;30180;44.788;10.366;2024-01-30T01:16:10;17.20;60.50
44477;DHT22;30180;44.788;10.366;2024-01-30T01:18:39;17.10;60.40
44477;DHT22;30180;44.788;10.366;2024-01-30T01:21:07;17.10;60.50
44477;DHT22;30180;44.788;10.366;2024-01-30T01:23:36;17.10;60.50
44477;DHT22;30180;44.788;10.366;2024-01-30T01:26:04;17.10;60.50
44477;DHT22;30180;44.788;10.366;2024-01-30T01:28:33;17.10;60.50
44477;DHT22;30180;44.788;10.366;2024-01-30T01:31:02;17.10;60.40
44477;DHT22;30180;44.788;10.366;2024-01-30T01:33:32;17.10;60.50
44477;DHT22;30180;44.788;10.366;2024-01-30T01:36:01;17.10;60.40
44477;DHT22;30180;44.788;10.366;2024-01-30T01:38:29;17.10;60.50
44477;DHT22;30180;44.788;10.366;2024-01-30T01:40:58;17.10;60.50
44477;DHT22;30180;44.788;10.366;2024-01-30T01:43:26;17.10;60.50
44477;DHT22;30180;44.788;10.366;2024-01-30T01:45:54;17.10;60.50
44477;DHT22;30180;44.788;10.366;2024-01-30T01:48:24;17.10;60.50
44477;DHT22;30180;44.788;10.366;2024-01-30T01:50:53;17.00;60.40
44477;DHT22;30180;44.788;10.366;2024-01-30T01:53:22;17.00;60.40
44477;DHT22;30180;44.788;10.366;2024-01-30T01:55:50;17.00;60.40
44477;DHT22;30180;44.788;10.366;2024-01-30T01:58:21;17.00;60.40
44477;DHT22;30180;44.788;10.366;2024-01-30T02:00:51;17.00;60.40
44477;DHT22;30180;44.788;10.366;2024-01-30T02:03:19;17.00;60.40
44477;DHT22;30180;44.788;10.366;2024-01-30T02:05:50;17.00;60.40
44477;DHT22;30180;44.788;10.366;2024-01-30T02:08:19;17.00;60.40
44477;DHT22;30180;44.788;10.366;2024-01-30T02:10:48;17.00;60.40
44477;DHT22;30180;44.788;10.366;2024-01-30T02:13:16;17.00;60.40
44477;DHT22;30180;44.788;10.366;2024-01-30T02:15:49;17.00;60.40
44477;DHT22;30180;44.788;10.366;2024-01-30T02:18:20;17.00;60.40
44477;DHT22;30180;44.788;10.366;2024-01-30T02:20:50;17.00;60.40
44477;DHT22;30180;44.788;10.366;2024-01-30T02:23:20;17.00;60.40
44477;DHT22;30180;44.788;10.366;2024-01-30T02:25:52;17.00;60.40
44477;DHT22;30180;44.788;10.366;2024-01-30T02:28:20;17.00;60.40
44477;DHT22;30180;44.788;10.366;2024-01-30T02:30:48;16.90;60.30
44477;DHT22;30180;44.788;10.366;2024-01-30T02:33:16;16.90;60.30
44477;DHT22;30180;44.788;10.366;2024-01-30T02:35:45;17.00;60.30
44477;DHT22;30180;44.788;10.366;2024-01-30T02:38:15;16.90;60.30
44477;DHT22;30180;44.788;10.366;2024-01-30T02:40:45;16.90;60.30
44477;DHT22;30180;44.788;10.366;2024-01-30T02:43:13;16.90;60.30
44477;DHT22;30180;44.788;10.366;2024-01-30T02:45:42;16.90;60.30
44477;DHT22;30180;44.788;10.366;2024-01-30T02:48:10;16.90;60.30
44477;DHT22;30180;44.788;10.366;2024-01-30T02:50:38;16.90;60.30
44477;DHT22;30180;44.788;10.366;2024-01-30T02:53:06;16.90;60.30
44477;DHT22;30180;44.788;10.366;2024-01-30T02:55:35;16.90;60.30
44477;DHT22;30180;44.788;10.366;2024-01-30T02:58:05;16.90;60.30
44477;DHT22;30180;44.788;10.366;2024-01-30T03:00:34;16.90;60.30
44477;DHT22;30180;44.788;10.366;2024-01-30T03:03:02;16.90;60.30
44477;DHT22;30180;44.788;10.366;2024-01-30T03:05:31;16.90;60.30
44477;DHT22;30180;44.788;10.366;2024-01-30T03:07:59;16.80;60.20
44477;DHT22;30180;44.788;10.366;2024-01-30T03:10:28;16.80;60.20
44477;DHT22;30180;44.788;10.366;2024-01-30T03:12:56;16.80;60.20
44477;DHT22;30180;44.788;10.366;2024-01-30T03:15:26;16.80;60.30
44477;DHT22;30180;44.788;10.366;2024-01-30T03:17:54;16.80;60.20
44477;DHT22;30180;44.788;10.366;2024-01-30T03:20:23;16.80;60.20
44477;DHT22;30180;44.788;10.366;2024-01-30T03:22:51;16.80;60.20
44477;DHT22;30180;44.788;10.366;2024-01-30T03:25:20;16.80;60.20
44477;DHT22;30180;44.788;10.366;2024-01-30T03:27:49;16.80;60.20
44477;DHT22;30180;44.788;10.366;2024-01-30T03:30:17;16.80;60.20
44477;DHT22;30180;44.788;10.366;2024-01-30T03:32:47;16.80;60.30
44477;DHT22;30180;44.788;10.366;2024-01-30T03:35:15;16.80;60.20
44477;DHT22;30180;44.788;10.366;2024-01-30T03:37:44;16.80;60.20
44477;DHT22;30180;44.788;10.366;2024-01-30T03:40:12;16.70;60.20
44477;DHT22;30180;44.788;10.366;2024-01-30T03:42:41;16.70;60.20
44477;DHT22;30180;44.788;10.366;2024-01-30T03:45:09;16.80;60.20
44477;DHT22;30180;44.788;10.366;2024-01-30T03:47:37;16.80;60.20
44477;DHT22;30180;44.788;10.366;2024-01-30T03:50:08;16.80;60.20
44477;DHT22;30180;44.788;10.366;2024-01-30T03:52:36;16.70;60.20
44477;DHT22;30180;44.788;10.366;2024-01-30T03:55:05;16.70;60.10
44477;DHT22;30180;44.788;10.366;2024-01-30T03:57:33;16.80;60.20
44477;DHT22;30180;44.788;10.366;2024-01-30T04:00:02;16.70;60.20
44477;DHT22;30180;44.788;10.366;2024-01-30T04:02:31;16.70;60.20
44477;DHT22;30180;44.788;10.366;2024-01-30T04:05:00;16.70;60.10
44477;DHT22;30180;44.788;10.366;2024-01-30T04:07:30;16.70;60.80
44477;DHT22;30180;44.788;10.366;2024-01-30T04:09:58;16.70;60.20
44477;DHT22;30180;44.788;10.366;2024-01-30T04:12:27;16.70;60.10
44477;DHT22;30180;44.788;10.366;2024-01-30T04:14:55;16.70;60.20
44477;DHT22;30180;44.788;10.366;2024-01-30T04:17:23;16.70;60.20
44477;DHT22;30180;44.788;10.366;2024-01-30T04:19:52;16.70;60.20
44477;DHT22;30180;44.788;10.366;2024-01-30T04:22:20;16.70;60.20
44477;DHT22;30180;44.788;10.366;2024-01-30T04:24:50;16.70;60.20
44477;DHT22;30180;44.788;10.366;2024-01-30T04:27:18;16.70;60.20
44477;DHT22;30180;44.788;10.366;2024-01-30T04:29:47;16.70;60.20
44477;DHT22;30180;44.788;10.366;2024-01-30T04:32:15;16.70;60.20
44477;DHT22;30180;44.788;10.366;2024-01-30T04:34:43;16.70;60.20
44477;DHT22;30180;44.788;10.366;2024-01-30T04:37:12;16.70;60.30
44477;DHT22;30180;44.788;10.366;2024-01-30T04:39:40;16.70;60.20
44477;DHT22;30180;44.788;10.366;2024-01-30T04:42:10;16.70;60.30
44477;DHT22;30180;44.788;10.366;2024-01-30T04:44:38;16.70;60.30
44477;DHT22;30180;44.788;10.366;2024-01-30T04:47:07;16.80;60.30
44477;DHT22;30180;44.788;10.366;2024-01-30T04:49:37;16.70;60.30
44477;DHT22;30180;44.788;10.366;2024-01-30T04:52:06;16.70;60.30
44477;DHT22;30180;44.788;10.366;2024-01-30T04:54:35;16.70;60.30
44477;DHT22;30180;44.788;10.366;2024-01-30T04:57:04;16.80;60.30
44477;DHT22;30180;44.788;10.366;2024-01-30T04:59:36;16.80;60.30
44477;DHT22;30180;44.788;10.366;2024-01-30T05:02:05;16.80;60.30
44477;DHT22;30180;44.788;10.366;2024-01-30T05:04:34;16.80;60.30
44477;DHT22;30180;44.788;10.366;2024-01-30T05:07:02;16.80;60.30
44477;DHT22;30180;44.788;10.366;2024-01-30T05:09:31;16.80;60.30
44477;DHT22;30180;44.788;10.366;2024-01-30T05:11:59;16.80;60.30
44477;DHT22;30180;44.788;10.366;2024-01-30T05:14:28;16.90;60.30
44477;DHT22;30180;44.788;10.366;2024-01-30T05:16:57;16.90;60.30
44477;DHT22;30180;44.788;10.366;2024-01-30T05:19:25;16.90;60.30
44477;DHT22;30180;44.788;10.366;2024-01-30T05:21:54;16.90;60.30
44477;DHT22;30180;44.788;10.366;2024-01-30T05:24:22;16.90;60.30
44477;DHT22;30180;44.788;10.366;2024-01-30T05:26:53;16.90;60.30
44477;DHT22;30180;44.788;10.366;2024-01-30T05:29:21;16.90;60.30
44477;DHT22;30180;44.788;10.366;2024-01-30T05:31:50;17.00;60.30
44477;DHT22;30180;44.788;10.366;2024-01-30T05:34:20;17.00;60.30
44477;DHT22;30180;44.788;10.366;2024-01-30T05:36:48;17.00;60.30
44477;DHT22;30180;44.788;10.366;2024-01-30T05:39:16;17.00;60.30
44477;DHT22;30180;44.788;10.366;2024-01-30T05:41:45;17.00;60.30
44477;DHT22;30180;44.788;10.366;2024-01-30T05:44:13;17.00;60.30
44477;DHT22;30180;44.788;10.366;2024-01-30T05:46:42;17.10;60.40
44477;DHT22;30180;44.788;10.366;2024-01-30T05:49:10;17.10;60.40
44477;DHT22;30180;44.788;10.366;2024-01-30T05:51:40;17.10;60.40
44477;DHT22;30180;44.788;10.366;2024-01-30T05:54:08;17.10;60.40
44477;DHT22;30180;44.788;10.366;2024-01-30T05:56:38;17.10;60.40
44477;DHT22;30180;44.788;10.366;2024-01-30T05:59:07;17.10;60.40
44477;DHT22;30180;44.788;10.366;2024-01-30T06:01:35;17.10;60.40
44477;DHT22;30180;44.788;10.366;2024-01-30T06:04:03;17.20;60.40
44477;DHT22;30180;44.788;10.366;2024-01-30T06:06:32;17.20;60.40
44477;DHT22;30180;44.788;10.366;2024-01-30T06:09:02;17.20;60.40
44477;DHT22;30180;44.788;10.366;2024-01-30T06:11:30;17.10;60.30
44477;DHT22;30180;44.788;10.366;2024-01-30T06:13:59;17.10;60.30
44477;DHT22;30180;44.788;10.366;2024-01-30T06:16:27;17.20;60.40
44477;DHT22;30180;44.788;10.366;2024-01-30T06:18:56;17.20;60.40
44477;DHT22;30180;44.788;10.366;2024-01-30T06:21:25;17.20;60.30
44477;DHT22;30180;44.788;10.366;2024-01-30T06:23:53;17.20;60.30
44477;DHT22;30180;44.788;10.366;2024-01-30T06:26:23;17.20;60.30
44477;DHT22;30180;44.788;10.366;2024-01-30T06:28:51;17.20;60.90
44477;DHT22;30180;44.788;10.366;2024-01-30T06:31:19;17.20;60.30
44477;DHT22;30180;44.788;10.366;2024-01-30T06:33:49;17.20;60.30
44477;DHT22;30180;44.788;10.366;2024-01-30T06:36:17;17.20;60.30
44477;DHT22;30180;44.788;10.366;2024-01-30T06:38:45;17.20;60.20
44477;DHT22;30180;44.788;10.366;2024-01-30T06:41:14;17.20;60.20
44477;DHT22;30180;44.788;10.366;2024-01-30T06:43:44;17.20;60.20
44477;DHT22;30180;44.788;10.366;2024-01-30T06:46:13;17.20;60.20
44477;DHT22;30180;44.788;10.366;2024-01-30T06:48:41;17.20;60.80
44477;DHT22;30180;44.788;10.366;2024-01-30T06:51:11;17.20;60.20
44477;DHT22;30180;44.788;10.366;2024-01-30T06:53:44;17.20;60.10
44477;DHT22;30180;44.788;10.366;2024-01-30T06:56:12;17.20;60.10
44477;DHT22;30180;44.788;10.366;2024-01-30T06:58:40;17.20;60.10
44477;DHT22;30180;44.788;10.366;2024-01-30T07:01:10;17.20;60.10
44477;DHT22;30180;44.788;10.366;2024-01-30T07:03:38;17.20;60.10
44477;DHT22;30180;44.788;10.366;2024-01-30T07:06:07;17.20;60.10
44477;DHT22;30180;44.788;10.366;2024-01-30T07:08:35;17.20;60.10
44477;DHT22;30180;44.788;10.366;2024-01-30T07:11:04;17.20;60.10
44477;DHT22;30180;44.788;10.366;2024-01-30T07:13:33;17.20;60.10
44477;DHT22;30180;44.788;10.366;2024-01-30T07:16:02;17.20;60.00
44477;DHT22;30180;44.788;10.366;2024-01-30T07:18:32;17.20;60.10
44477;DHT22;30180;44.788;10.366;2024-01-30T07:21:00;17.20;60.00
44477;DHT22;30180;44.788;10.366;2024-01-30T07:23:28;17.20;60.00
44477;DHT22;30180;44.788;10.366;2024-01-30T07:25:57;17.20;60.00
44477;DHT22;30180;44.788;10.366;2024-01-30T07:28:25;17.20;60.10
44477;DHT22;30180;44.788;10.366;2024-01-30T07:30:54;17.20;60.00
44477;DHT22;30180;44.788;10.366;2024-01-30T07:33:22;17.10;60.00
44477;DHT22;30180;44.788;10.366;2024-01-30T07:35:52;17.20;60.10
44477;DHT22;30180;44.788;10.366;2024-01-30T07:38:21;17.20;60.10
44477;DHT22;30180;44.788;10.366;2024-01-30T07:40:49;17.20;60.10
44477;DHT22;30180;44.788;10.366;2024-01-30T07:43:18;17.20;60.10
44477;DHT22;30180;44.788;10.366;2024-01-30T07:45:47;17.20;60.10
44477;DHT22;30180;44.788;10.366;2024-01-30T07:48:16;17.30;60.10
44477;DHT22;30180;44.788;10.366;2024-01-30T07:50:44;17.30;60.10
44477;DHT22;30180;44.788;10.366;2024-01-30T07:53:14;17.30;60.10
44477;DHT22;30180;44.788;10.366;2024-01-30T07:55:42;17.30;60.10
44477;DHT22;30180;44.788;10.366;2024-01-30T07:58:13;17.30;60.10
44477;DHT22;30180;44.788;10.366;2024-01-30T08:00:42;17.30;60.10
44477;DHT22;30180;44.788;10.366;2024-01-30T08:03:10;17.40;60.10
44477;DHT22;30180;44.788;10.366;2024-01-30T08:05:39;17.40;60.10
44477;DHT22;30180;44.788;10.366;2024-01-30T08:08:07;17.30;60.00
44477;DHT22;30180;44.788;10.366;2024-01-30T08:10:37;17.40;60.10
44477;DHT22;30180;44.788;10.366;2024-01-30T08:13:05;17.40;60.10
44477;DHT22;30180;44.788;10.366;2024-01-30T08:15:35;17.40;60.10
44477;DHT22;30180;44.788;10.366;2024-01-30T08:18:04;17.40;60.10
44477;DHT22;30180;44.788;10.366;2024-01-30T08:20:34;17.40;60.10
44477;DHT22;30180;44.788;10.366;2024-01-30T08:23:02;17.40;60.10
44477;DHT22;30180;44.788;10.366;2024-01-30T08:25:30;17.40;60.10
44477;DHT22;30180;44.788;10.366;2024-01-30T08:28:00;17.50;60.10
44477;DHT22;30180;44.788;10.366;2024-01-30T08:30:29;17.50;60.10
44477;DHT22;30180;44.788;10.366;2024-01-30T08:32:57;17.50;60.20
44477;DHT22;30180;44.788;10.366;2024-01-30T08:35:25;17.50;60.20
44477;DHT22;30180;44.788;10.366;2024-01-30T08:37:54;17.50;60.30
44477;DHT22;30180;44.788;10.366;2024-01-30T08:40:22;17.50;60.20
44477;DHT22;30180;44.788;10.366;2024-01-30T08:42:51;17.50;60.20
44477;DHT22;30180;44.788;10.366;2024-01-30T08:45:21;17.50;60.10
44477;DHT22;30180;44.788;10.366;2024-01-30T08:47:49;17.50;60.10
44477;DHT22;30180;44.788;10.366;2024-01-30T08:50:17;17.50;60.20
44477;DHT22;30180;44.788;10.366;2024-01-30T08:52:46;17.50;60.20
44477;DHT22;30180;44.788;10.366;2024-01-30T08:55:16;17.50;60.20
44477;DHT22;30180;44.788;10.366;2024-01-30T08:57:44;17.50;60.10
44477;DHT22;30180;44.788;10.366;2024-01-30T09:00:14;17.50;60.10
44477;DHT22;30180;44.788;10.366;2024-01-30T09:02:43;17.50;60.20
44477;DHT22;30180;44.788;10.366;2024-01-30T09:05:12;17.50;60.20
44477;DHT22;30180;44.788;10.366;2024-01-30T09:07:40;17.50;60.20
44477;DHT22;30180;44.788;10.366;2024-01-30T09:10:09;17.50;60.20
44477;DHT22;30180;44.788;10.366;2024-01-30T09:12:40;17.50;60.20
44477;DHT22;30180;44.788;10.366;2024-01-30T09:15:09;17.50;60.20
44477;DHT22;30180;44.788;10.366;2024-01-30T09:17:38;17.50;60.10
44477;DHT22;30180;44.788;10.366;2024-01-30T09:20:08;17.50;60.00
44477;DHT22;30180;44.788;10.366;2024-01-30T09:22:37;17.50;60.10
44477;DHT22;30180;44.788;10.366;2024-01-30T09:25:06;17.50;59.70
44477;DHT22;30180;44.788;10.366;2024-01-30T09:27:34;17.50;60.10
44477;DHT22;30180;44.788;10.366;2024-01-30T09:30:03;17.50;60.10
44477;DHT22;30180;44.788;10.366;2024-01-30T09:32:32;17.50;60.10
44477;DHT22;30180;44.788;10.366;2024-01-30T09:35:00;17.50;60.20
44477;DHT22;30180;44.788;10.366;2024-01-30T09:37:30;17.50;60.30
44477;DHT22;30180;44.788;10.366;2024-01-30T09:39:59;17.60;60.40
44477;DHT22;30180;44.788;10.366;2024-01-30T09:42:33;17.60;60.40
44477;DHT22;30180;44.788;10.366;2024-01-30T09:45:02;17.60;60.30
44477;DHT22;30180;44.788;10.366;2024-01-30T09:47:32;17.70;60.30
44477;DHT22;30180;44.788;10.366;2024-01-30T09:50:01;17.70;60.20
44477;DHT22;30180;44.788;10.366;2024-01-30T09:52:34;17.70;60.30
44477;DHT22;30180;44.788;10.366;2024-01-30T09:55:04;17.70;60.30
44477;DHT22;30180;44.788;10.366;2024-01-30T09:57:34;17.70;60.30
44477;DHT22;30180;44.788;10.366;2024-01-30T10:00:03;17.70;60.30
44477;DHT22;30180;44.788;10.366;2024-01-30T10:02:32;17.70;60.30
44477;DHT22;30180;44.788;10.366;2024-01-30T10:05:01;17.80;60.40
44477;DHT22;30180;44.788;10.366;2024-01-30T10:07:30;17.70;60.30
44477;DHT22;30180;44.788;10.366;2024-01-30T10:10:00;17.80;60.40
44477;DHT22;30180;44.788;10.366;2024-01-30T10:12:29;17.80;60.40
44477;DHT22;30180;44.788;10.366;2024-01-30T10:14:57;17.80;60.40
44477;DHT22;30180;44.788;10.366;2024-01-30T10:17:26;17.80;60.30
44477;DHT22;30180;44.788;10.366;2024-01-30T10:20:00;17.80;60.40
44477;DHT22;30180;44.788;10.366;2024-01-30T10:22:32;17.90;60.40
44477;DHT22;30180;44.788;10.366;2024-01-30T10:25:02;17.90;60.40
44477;DHT22;30180;44.788;10.366;2024-01-30T10:27:32;17.90;60.50
44477;DHT22;30180;44.788;10.366;2024-01-30T10:30:01;17.90;60.40
44477;DHT22;30180;44.788;10.366;2024-01-30T10:32:31;17.90;60.40
44477;DHT22;30180;44.788;10.366;2024-01-30T10:34:59;18.00;60.50
44477;DHT22;30180;44.788;10.366;2024-01-30T10:37:30;18.00;60.50
44477;DHT22;30180;44.788;10.366;2024-01-30T10:40:04;18.00;60.50
44477;DHT22;30180;44.788;10.366;2024-01-30T10:42:36;18.00;60.50
44477;DHT22;30180;44.788;10.366;2024-01-30T10:45:07;18.10;60.50
44477;DHT22;30180;44.788;10.366;2024-01-30T10:47:36;18.10;60.50
44477;DHT22;30180;44.788;10.366;2024-01-30T10:50:05;18.10;60.50
44477;DHT22;30180;44.788;10.366;2024-01-30T10:52:36;18.10;60.50
44477;DHT22;30180;44.788;10.366;2024-01-30T10:55:07;18.20;60.50
44477;DHT22;30180;44.788;10.366;2024-01-30T10:57:37;18.20;60.50
44477;DHT22;30180;44.788;10.366;2024-01-30T11:00:08;18.20;60.40
44477;DHT22;30180;44.788;10.366;2024-01-30T11:02:39;18.20;60.40
44477;DHT22;30180;44.788;10.366;2024-01-30T11:05:08;18.20;60.40
44477;DHT22;30180;44.788;10.366;2024-01-30T11:07:39;18.30;60.40
44477;DHT22;30180;44.788;10.366;2024-01-30T11:10:10;18.30;60.40
44477;DHT22;30180;44.788;10.366;2024-01-30T11:12:42;18.30;60.50
44477;DHT22;30180;44.788;10.366;2024-01-30T11:15:15;18.30;60.40
44477;DHT22;30180;44.788;10.366;2024-01-30T11:17:45;18.40;60.50
44477;DHT22;30180;44.788;10.366;2024-01-30T11:20:15;18.40;60.40
44477;DHT22;30180;44.788;10.366;2024-01-30T11:22:45;18.40;60.40
44477;DHT22;30180;44.788;10.366;2024-01-30T11:25:16;18.40;60.40
44477;DHT22;30180;44.788;10.366;2024-01-30T11:27:45;18.50;60.40
44477;DHT22;30180;44.788;10.366;2024-01-30T11:30:21;18.50;60.40
44477;DHT22;30180;44.788;10.366;2024-01-30T11:33:05;18.50;60.30
44477;DHT22;30180;44.788;10.366;2024-01-30T11:35:35;18.50;60.30
44477;DHT22;30180;44.788;10.366;2024-01-30T11:38:05;18.50;60.30
44477;DHT22;30180;44.788;10.366;2024-01-30T11:40:36;18.50;60.30
44477;DHT22;30180;44.788;10.366;2024-01-30T11:43:06;18.50;60.30
44477;DHT22;30180;44.788;10.366;2024-01-30T11:45:36;18.50;60.30
44477;DHT22;30180;44.788;10.366;2024-01-30T11:48:07;18.50;60.30
44477;DHT22;30180;44.788;10.366;2024-01-30T11:50:40;18.60;60.30
44477;DHT22;30180;44.788;10.366;2024-01-30T11:53:09;18.50;60.30
44477;DHT22;30180;44.788;10.366;2024-01-30T11:55:39;18.60;60.40
44477;DHT22;30180;44.788;10.366;2024-01-30T11:58:08;18.60;60.30
44477;DHT22;30180;44.788;10.366;2024-01-30T12:00:36;18.70;60.30
44477;DHT22;30180;44.788;10.366;2024-01-30T12:03:05;18.70;60.20
44477;DHT22;30180;44.788;10.366;2024-01-30T12:05:34;18.80;60.10
44477;DHT22;30180;44.788;10.366;2024-01-30T12:08:04;18.80;60.10
44477;DHT22;30180;44.788;10.366;2024-01-30T12:10:34;18.70;60.00
44477;DHT22;30180;44.788;10.366;2024-01-30T12:13:04;18.80;60.00
44477;DHT22;30180;44.788;10.366;2024-01-30T12:15:33;18.70;59.90
44477;DHT22;30180;44.788;10.366;2024-01-30T12:18:05;18.80;59.80
44477;DHT22;30180;44.788;10.366;2024-01-30T12:20:34;18.80;59.80
44477;DHT22;30180;44.788;10.366;2024-01-30T12:23:03;18.80;59.70
44477;DHT22;30180;44.788;10.366;2024-01-30T12:25:32;18.70;59.70
44477;DHT22;30180;44.788;10.366;2024-01-30T12:28:01;18.70;59.60
44477;DHT22;30180;44.788;10.366;2024-01-30T12:30:31;18.70;59.60
44477;DHT22;30180;44.788;10.366;2024-01-30T12:33:00;18.70;59.60
44477;DHT22;30180;44.788;10.366;2024-01-30T12:35:31;18.70;59.50
44477;DHT22;30180;44.788;10.366;2024-01-30T12:38:00;18.60;59.50
44477;DHT22;30180;44.788;10.366;2024-01-30T12:40:28;18.70;59.50
44477;DHT22;30180;44.788;10.366;2024-01-30T12:42:57;18.60;59.40
44477;DHT22;30180;44.788;10.366;2024-01-30T12:45:25;18.60;59.40
44477;DHT22;30180;44.788;10.366;2024-01-30T12:47:55;18.60;59.40
44477;DHT22;30180;44.788;10.366;2024-01-30T12:50:25;18.60;59.40
44477;DHT22;30180;44.788;10.366;2024-01-30T12:52:53;18.60;59.30
44477;DHT22;30180;44.788;10.366;2024-01-30T12:55:23;18.60;59.40
44477;DHT22;30180;44.788;10.366;2024-01-30T12:57:51;18.60;59.30
44477;DHT22;30180;44.788;10.366;2024-01-30T13:00:20;18.50;59.30
44477;DHT22;30180;44.788;10.366;2024-01-30T13:02:49;18.50;59.30
44477;DHT22;30180;44.788;10.366;2024-01-30T13:05:18;18.50;59.30
44477;DHT22;30180;44.788;10.366;2024-01-30T13:07:47;18.50;59.20
44477;DHT22;30180;44.788;10.366;2024-01-30T13:10:15;18.50;59.20
44477;DHT22;30180;44.788;10.366;2024-01-30T13:12:44;18.50;59.20
44477;DHT22;30180;44.788;10.366;2024-01-30T13:15:12;18.40;59.20
44477;DHT22;30180;44.788;10.366;2024-01-30T13:17:40;18.40;59.10
44477;DHT22;30180;44.788;10.366;2024-01-30T13:20:10;18.40;59.10
44477;DHT22;30180;44.788;10.366;2024-01-30T13:22:41;18.40;59.10
44477;DHT22;30180;44.788;10.366;2024-01-30T13:25:10;18.40;59.10
44477;DHT22;30180;44.788;10.366;2024-01-30T13:27:39;18.40;59.70
44477;DHT22;30180;44.788;10.366;2024-01-30T13:30:08;18.30;59.00
44477;DHT22;30180;44.788;10.366;2024-01-30T13:32:37;18.30;59.00
44477;DHT22;30180;44.788;10.366;2024-01-30T13:35:05;18.30;59.00
44477;DHT22;30180;44.788;10.366;2024-01-30T13:37:34;18.30;59.00
44477;DHT22;30180;44.788;10.366;2024-01-30T13:40:05;18.30;59.00
44477;DHT22;30180;44.788;10.366;2024-01-30T13:42:40;18.30;59.00
44477;DHT22;30180;44.788;10.366;2024-01-30T13:45:08;18.30;59.00
44477;DHT22;30180;44.788;10.366;2024-01-30T13:47:38;18.30;59.10
44477;DHT22;30180;44.788;10.366;2024-01-30T13:50:06;18.30;59.10
44477;DHT22;30180;44.788;10.366;2024-01-30T13:52:37;18.20;59.10
44477;DHT22;30180;44.788;10.366;2024-01-30T13:55:12;18.20;59.00
44477;DHT22;30180;44.788;10.366;2024-01-30T13:57:41;18.20;59.10
44477;DHT22;30180;44.788;10.366;2024-01-30T14:00:10;18.20;59.10
44477;DHT22;30180;44.788;10.366;2024-01-30T14:02:39;18.20;59.10
44477;DHT22;30180;44.788;10.366;2024-01-30T14:05:09;18.20;59.10
44477;DHT22;30180;44.788;10.366;2024-01-30T14:07:37;18.20;59.20
44477;DHT22;30180;44.788;10.366;2024-01-30T14:10:08;18.20;59.20
44477;DHT22;30180;44.788;10.366;2024-01-30T14:12:42;18.20;59.20
44477;DHT22;30180;44.788;10.366;2024-01-30T14:15:12;18.20;59.20
44477;DHT22;30180;44.788;10.366;2024-01-30T14:17:54;18.20;59.20
44477;DHT22;30180;44.788;10.366;2024-01-30T14:20:23;18.20;59.20
44477;DHT22;30180;44.788;10.366;2024-01-30T14:22:51;18.20;59.20
44477;DHT22;30180;44.788;10.366;2024-01-30T14:25:23;18.20;59.20
44477;DHT22;30180;44.788;10.366;2024-01-30T14:27:53;18.20;59.20
44477;DHT22;30180;44.788;10.366;2024-01-30T14:30:21;18.20;59.90
44477;DHT22;30180;44.788;10.366;2024-01-30T14:32:50;18.20;59.20
44477;DHT22;30180;44.788;10.366;2024-01-30T14:35:19;18.20;59.30
44477;DHT22;30180;44.788;10.366;2024-01-30T14:37:48;18.20;59.30
44477;DHT22;30180;44.788;10.366;2024-01-30T14:40:17;18.20;59.30
44477;DHT22;30180;44.788;10.366;2024-01-30T14:42:49;18.20;59.30
44477;DHT22;30180;44.788;10.366;2024-01-30T14:45:19;18.20;59.40
44477;DHT22;30180;44.788;10.366;2024-01-30T14:47:49;18.20;59.40
44477;DHT22;30180;44.788;10.366;2024-01-30T14:50:18;18.10;59.30
44477;DHT22;30180;44.788;10.366;2024-01-30T14:52:46;18.10;59.30
44477;DHT22;30180;44.788;10.366;2024-01-30T14:55:14;18.10;59.30
44477;DHT22;30180;44.788;10.366;2024-01-30T14:57:43;18.20;59.40
44477;DHT22;30180;44.788;10.366;2024-01-30T15:00:13;18.10;59.30
44477;DHT22;30180;44.788;10.366;2024-01-30T15:02:44;18.10;59.90
44477;DHT22;30180;44.788;10.366;2024-01-30T15:05:14;18.10;59.30
44477;DHT22;30180;44.788;10.366;2024-01-30T15:07:43;18.20;59.40
44477;DHT22;30180;44.788;10.366;2024-01-30T15:10:11;18.20;59.40
44477;DHT22;30180;44.788;10.366;2024-01-30T15:12:40;18.10;59.30
44477;DHT22;30180;44.788;10.366;2024-01-30T15:15:08;18.10;59.30
44477;DHT22;30180;44.788;10.366;2024-01-30T15:17:38;18.10;59.30
44477;DHT22;30180;44.788;10.366;2024-01-30T15:20:08;18.10;59.30
44477;DHT22;30180;44.788;10.366;2024-01-30T15:22:37;18.10;59.30
44477;DHT22;30180;44.788;10.366;2024-01-30T15:25:07;18.00;59.30
44477;DHT22;30180;44.788;10.366;2024-01-30T15:27:35;18.10;59.30